createdAt,value
2022-10-18T00:01:01.107Z,16.60
2022-10-18T00:03:29.022Z,16.50
2022-10-18T00:05:56.900Z,16.50
2022-10-18T00:08:25.384Z,16.50
2022-10-18T00:10:53.268Z,16.40
2022-10-18T00:13:23.219Z,16.50
2022-10-18T00:15:52.181Z,16.60
2022-10-18T00:18:21.219Z,16.30
2022-10-18T00:20:58.408Z,16.20
2022-10-18T00:23:26.903Z,16.20
2022-10-18T00:26:03.802Z,16.20
2022-10-18T00:28:34.054Z,16.20
2022-10-18T00:31:11.843Z,16.20
2022-10-18T00:33:39.848Z,16.20
2022-10-18T00:36:08.259Z,16.20
2022-10-18T00:38:36.209Z,16.30
2022-10-18T00:41:04.563Z,16.20
2022-10-18T00:43:34.086Z,16.20
2022-10-18T00:46:01.927Z,16.20
2022-10-18T00:48:29.811Z,16.20
2022-10-18T00:50:58.154Z,16.30
2022-10-18T00:53:27.933Z,16.40
2022-10-18T00:55:55.854Z,16.30
2022-10-18T00:58:23.744Z,16.20
2022-10-18T01:00:53.025Z,16.20
2022-10-18T01:03:20.919Z,16.20
2022-10-18T01:05:49.594Z,16.30
2022-10-18T01:08:34.553Z,16.30
2022-10-18T01:11:14.328Z,16.20
2022-10-18T01:13:51.717Z,16.30
2022-10-18T01:16:25.893Z,16.30
2022-10-18T01:18:59.202Z,16.30
2022-10-18T01:21:37.000Z,16.40
2022-10-18T01:24:46.630Z,16.30
2022-10-18T01:27:31.524Z,16.20
2022-10-18T01:30:28.249Z,16.20
2022-10-18T01:33:01.790Z,16.20
2022-10-18T01:35:33.324Z,16.10
2022-10-18T01:38:05.618Z,16.20
2022-10-18T01:40:34.588Z,16.20
2022-10-18T01:43:04.137Z,16.20
2022-10-18T01:45:33.674Z,16.20
2022-10-18T01:48:04.024Z,16.20
2022-10-18T01:50:33.806Z,16.20
2022-10-18T01:53:01.826Z,16.20
2022-10-18T01:55:38.636Z,16.20
2022-10-18T01:58:15.684Z,16.20
2022-10-18T02:00:46.846Z,16.20
2022-10-18T02:03:21.257Z,16.30
2022-10-18T02:05:54.233Z,16.30
2022-10-18T02:08:29.058Z,16.20
2022-10-18T02:11:01.921Z,16.30
2022-10-18T02:13:34.227Z,16.30
2022-10-18T02:16:08.795Z,16.30
2022-10-18T02:18:41.525Z,16.30
2022-10-18T02:21:13.845Z,16.30
2022-10-18T02:23:41.790Z,16.30
2022-10-18T02:26:09.633Z,16.30
2022-10-18T02:28:37.489Z,16.30
2022-10-18T02:31:11.734Z,16.30
2022-10-18T02:33:46.431Z,16.30
2022-10-18T02:36:20.654Z,16.30
2022-10-18T02:38:53.942Z,16.30
2022-10-18T02:41:24.816Z,16.20
2022-10-18T02:43:52.740Z,16.20
2022-10-18T02:46:20.852Z,16.20
2022-10-18T02:48:50.436Z,16.20
2022-10-18T02:51:18.968Z,16.20
2022-10-18T02:53:46.871Z,16.30
2022-10-18T02:56:14.802Z,16.30
2022-10-18T02:58:42.682Z,16.30
2022-10-18T03:01:10.941Z,16.30
2022-10-18T03:03:38.867Z,16.40
2022-10-18T03:06:08.313Z,16.20
2022-10-18T03:08:37.599Z,15.80
2022-10-18T03:11:05.658Z,15.60
2022-10-18T03:13:34.173Z,15.60
2022-10-18T03:16:02.884Z,15.40
2022-10-18T03:18:30.754Z,15.30
2022-10-18T03:20:58.859Z,15.20
2022-10-18T03:23:28.100Z,15.00
2022-10-18T03:25:56.012Z,15.10
2022-10-18T03:28:24.003Z,15.30
2022-10-18T03:30:51.886Z,15.40
2022-10-18T03:33:19.756Z,15.30
2022-10-18T03:35:47.626Z,15.10
2022-10-18T03:38:15.483Z,15.30
2022-10-18T03:40:44.689Z,15.40
2022-10-18T03:43:12.570Z,15.40
2022-10-18T03:45:41.066Z,15.40
2022-10-18T03:48:08.955Z,15.20
2022-10-18T03:50:36.815Z,15.20
2022-10-18T03:53:05.079Z,15.20
2022-10-18T03:55:33.231Z,15.30
2022-10-18T03:58:02.489Z,15.30
2022-10-18T04:00:30.314Z,15.30
2022-10-18T04:02:58.254Z,15.30
2022-10-18T04:05:27.916Z,15.40
2022-10-18T04:07:56.136Z,15.50
2022-10-18T04:10:24.087Z,15.50
2022-10-18T04:12:52.170Z,15.50
2022-10-18T04:15:21.793Z,15.50
2022-10-18T04:17:49.593Z,15.50
2022-10-18T04:20:17.898Z,15.50
2022-10-18T04:22:45.802Z,15.50
2022-10-18T04:25:13.669Z,15.50
2022-10-18T04:27:41.591Z,15.40
2022-10-18T04:30:10.277Z,15.40
2022-10-18T04:32:39.488Z,15.40
2022-10-18T04:35:08.200Z,15.40
2022-10-18T04:37:36.304Z,15.30
2022-10-18T04:40:05.517Z,15.30
2022-10-18T04:42:33.488Z,15.30
2022-10-18T04:45:01.400Z,15.30
2022-10-18T04:47:29.490Z,15.30
2022-10-18T04:49:58.868Z,15.30
2022-10-18T04:52:26.930Z,15.30
2022-10-18T04:54:54.775Z,15.30
2022-10-18T04:57:22.816Z,15.30
2022-10-18T04:59:50.705Z,15.30
2022-10-18T05:02:18.624Z,15.30
2022-10-18T05:04:46.595Z,15.30
2022-10-18T05:07:15.803Z,15.30
2022-10-18T05:09:43.658Z,15.30
2022-10-18T05:12:11.719Z,15.30
2022-10-18T05:14:39.961Z,15.30
2022-10-18T05:17:07.882Z,15.30
2022-10-18T05:19:35.699Z,15.30
2022-10-18T05:22:03.716Z,15.40
2022-10-18T05:24:32.931Z,15.30
2022-10-18T05:27:00.853Z,15.30
2022-10-18T05:29:29.144Z,15.40
2022-10-18T05:31:57.008Z,15.40
2022-10-18T05:34:27.222Z,15.30
2022-10-18T05:36:55.086Z,15.40
2022-10-18T05:39:23.115Z,15.40
2022-10-18T05:41:52.374Z,15.30
2022-10-18T05:44:20.591Z,15.30
2022-10-18T05:46:48.435Z,15.40
2022-10-18T05:49:16.509Z,15.40
2022-10-18T05:51:44.369Z,15.40
2022-10-18T05:54:13.227Z,15.30
2022-10-18T05:56:41.623Z,15.40
2022-10-18T05:59:12.191Z,15.40
2022-10-18T06:01:41.315Z,15.40
2022-10-18T06:04:10.978Z,15.40
2022-10-18T06:06:39.854Z,15.40
2022-10-18T06:09:08.869Z,15.40
2022-10-18T06:11:37.449Z,15.40
2022-10-18T06:14:05.958Z,15.40
2022-10-18T06:19:03.148Z,15.30
2022-10-18T06:21:32.926Z,15.40
2022-10-18T06:24:00.816Z,15.40
2022-10-18T06:26:29.380Z,15.50
2022-10-18T06:28:57.360Z,15.50
2022-10-18T06:31:25.274Z,15.40
2022-10-18T06:33:56.623Z,15.40
2022-10-18T06:36:24.501Z,15.40
2022-10-18T06:38:52.545Z,15.40
2022-10-18T06:41:20.609Z,15.40
2022-10-18T06:43:49.896Z,15.40
2022-10-18T06:46:17.852Z,15.40
2022-10-18T06:48:45.837Z,15.30
2022-10-18T06:51:15.239Z,15.30
2022-10-18T06:53:59.158Z,15.30
2022-10-18T06:56:34.336Z,15.40
2022-10-18T06:59:02.248Z,15.40
2022-10-18T07:01:30.382Z,15.40
2022-10-18T07:03:58.386Z,15.40
2022-10-18T07:06:27.697Z,15.50
2022-10-18T07:08:56.194Z,15.50
2022-10-18T07:11:26.377Z,15.50
2022-10-18T07:13:57.130Z,15.60
2022-10-18T07:16:25.001Z,15.60
2022-10-18T07:18:53.154Z,15.60
2022-10-18T07:21:24.638Z,15.60
2022-10-18T07:23:55.494Z,15.60
2022-10-18T07:26:25.387Z,15.60
2022-10-18T07:28:57.829Z,15.70
2022-10-18T07:31:26.261Z,15.70
2022-10-18T07:33:54.291Z,15.70
2022-10-18T07:36:22.419Z,15.70
2022-10-18T07:38:51.852Z,15.80
2022-10-18T07:41:21.694Z,15.80
2022-10-18T07:43:51.762Z,15.80
2022-10-18T07:46:21.642Z,15.80
2022-10-18T07:48:50.362Z,15.80
2022-10-18T07:51:19.346Z,15.80
2022-10-18T07:53:50.779Z,15.90
2022-10-18T07:56:21.980Z,15.80
2022-10-18T07:58:52.327Z,15.90
2022-10-18T08:01:24.211Z,16.00
2022-10-18T08:03:52.833Z,16.10
2022-10-18T08:06:22.682Z,16.10
2022-10-18T08:08:50.783Z,16.10
2022-10-18T08:11:24.467Z,16.10
2022-10-18T08:13:53.433Z,16.00
2022-10-18T08:16:23.801Z,15.90
2022-10-18T08:18:51.927Z,16.10
2022-10-18T08:21:21.512Z,16.20
2022-10-18T08:23:50.498Z,16.40
2022-10-18T08:26:21.907Z,16.40
2022-10-18T08:28:58.532Z,16.30
2022-10-18T08:31:38.042Z,16.30
2022-10-18T08:34:06.056Z,16.30
2022-10-18T08:36:33.998Z,16.20
2022-10-18T08:39:02.890Z,16.20
2022-10-18T08:41:50.139Z,16.10
2022-10-18T08:44:21.661Z,16.20
2022-10-18T08:46:51.870Z,16.30
2022-10-18T08:49:28.466Z,16.30
2022-10-18T08:51:57.282Z,16.30
2022-10-18T08:54:33.059Z,16.30
2022-10-18T08:57:07.344Z,16.40
2022-10-18T08:59:39.704Z,16.40
2022-10-18T09:02:21.441Z,16.50
2022-10-18T09:04:55.188Z,16.60
2022-10-18T09:07:51.515Z,16.50
2022-10-18T09:10:27.452Z,16.40
2022-10-18T09:13:10.570Z,16.50
2022-10-18T09:15:46.635Z,16.60
2022-10-18T09:18:33.253Z,16.60
2022-10-18T09:21:06.344Z,16.50
2022-10-18T09:23:46.672Z,16.50
2022-10-18T09:26:18.555Z,16.60
2022-10-18T09:29:08.940Z,16.70
2022-10-18T09:31:49.060Z,16.80
2022-10-18T09:34:26.522Z,16.80
2022-10-18T09:36:55.349Z,16.80
2022-10-18T09:39:27.097Z,16.80
2022-10-18T09:42:00.777Z,16.80
2022-10-18T09:44:40.218Z,16.90
2022-10-18T09:47:16.909Z,16.90
2022-10-18T09:49:48.555Z,16.90
2022-10-18T09:52:20.671Z,16.90
2022-10-18T09:54:55.029Z,16.90
2022-10-18T09:57:28.490Z,17.00
2022-10-18T10:00:00.083Z,16.90
2022-10-18T10:02:28.407Z,16.90
2022-10-18T10:04:57.072Z,17.00
2022-10-18T10:07:29.888Z,17.00
2022-10-18T10:10:07.559Z,17.10
2022-10-18T10:12:37.538Z,16.90
2022-10-18T10:15:16.009Z,16.90
2022-10-18T10:17:44.510Z,16.90
2022-10-18T10:20:20.197Z,17.00
2022-10-18T10:22:49.021Z,17.10
2022-10-18T10:25:31.783Z,17.20
2022-10-18T10:28:04.558Z,17.10
2022-10-18T10:30:35.554Z,17.20
2022-10-18T10:33:04.305Z,17.10
2022-10-18T10:35:53.661Z,17.10
2022-10-18T10:38:26.395Z,17.20
2022-10-18T10:40:54.687Z,17.10
2022-10-18T10:43:37.177Z,17.00
2022-10-18T10:46:09.728Z,17.20
2022-10-18T10:48:49.283Z,17.40
2022-10-18T10:51:28.657Z,17.40
2022-10-18T10:54:02.235Z,17.60
2022-10-18T10:56:33.174Z,17.70
2022-10-18T10:59:09.518Z,17.60
2022-10-18T11:01:38.882Z,17.70
2022-10-18T11:04:25.781Z,17.80
2022-10-18T11:07:06.004Z,18.00
2022-10-18T11:09:53.083Z,17.80
2022-10-18T11:12:36.633Z,17.80
2022-10-18T11:15:15.282Z,17.90
2022-10-18T11:17:49.776Z,18.00
2022-10-18T11:20:26.718Z,18.20
2022-10-18T11:23:03.520Z,18.30
2022-10-18T11:26:04.161Z,18.00
2022-10-18T11:28:52.656Z,17.90
2022-10-18T11:31:25.860Z,17.90
2022-10-18T11:34:10.069Z,18.30
2022-10-18T11:36:56.323Z,18.40
2022-10-18T11:39:43.797Z,18.40
2022-10-18T11:42:21.680Z,18.70
2022-10-18T11:45:00.514Z,18.70
2022-10-18T11:47:37.040Z,18.60
2022-10-18T11:50:15.653Z,18.60
2022-10-18T11:52:53.714Z,18.50
2022-10-18T11:55:33.717Z,18.60
2022-10-18T11:58:14.660Z,18.30
2022-10-18T12:00:50.017Z,18.20
2022-10-18T12:03:34.750Z,18.30
2022-10-18T12:06:07.856Z,18.50
2022-10-18T12:08:42.702Z,18.40
2022-10-18T12:11:17.003Z,18.30
2022-10-18T12:13:48.623Z,18.20
2022-10-18T12:16:33.481Z,18.00
2022-10-18T12:19:22.066Z,18.00
2022-10-18T12:21:57.711Z,17.90
2022-10-18T12:24:30.042Z,17.90
2022-10-18T12:27:00.915Z,17.90
2022-10-18T12:29:34.574Z,18.00
2022-10-18T12:32:08.008Z,18.00
2022-10-18T12:34:42.993Z,18.00
2022-10-18T12:37:46.693Z,17.90
2022-10-18T12:40:21.502Z,17.90
2022-10-18T12:42:52.549Z,18.00
2022-10-18T12:45:32.275Z,18.20
2022-10-18T12:48:04.490Z,18.20
2022-10-18T12:50:36.062Z,18.40
2022-10-18T12:53:22.797Z,18.60
2022-10-18T12:55:52.556Z,19.00
2022-10-18T12:58:29.966Z,19.10
2022-10-18T13:01:03.216Z,19.10
2022-10-18T13:03:52.144Z,18.70
2022-10-18T13:06:21.186Z,18.80
2022-10-18T13:09:17.195Z,18.90
2022-10-18T13:11:45.883Z,18.90
2022-10-18T13:14:53.368Z,18.60
2022-10-18T13:17:36.613Z,18.30
2022-10-18T13:20:26.006Z,18.60
2022-10-18T13:23:13.821Z,18.70
2022-10-18T13:25:58.518Z,18.60
2022-10-18T13:28:31.993Z,18.50
2022-10-18T13:31:11.244Z,18.60
2022-10-18T13:33:41.146Z,18.60
2022-10-18T13:36:23.566Z,18.60
2022-10-18T13:39:04.412Z,18.60
2022-10-18T13:41:38.722Z,18.60
2022-10-18T13:44:26.104Z,18.70
2022-10-18T13:47:35.001Z,18.80
2022-10-18T13:50:21.678Z,18.80
2022-10-18T13:53:05.830Z,18.80
2022-10-18T13:55:56.296Z,18.70
2022-10-18T13:58:35.803Z,18.80
2022-10-18T14:01:16.703Z,18.80
2022-10-18T14:04:24.027Z,18.60
2022-10-18T14:06:54.502Z,18.60
2022-10-18T14:12:26.083Z,18.80
2022-10-18T14:15:00.625Z,19.00
2022-10-18T14:17:36.365Z,18.80
2022-10-18T14:20:19.866Z,19.00
2022-10-18T14:22:52.157Z,19.30
2022-10-18T14:25:23.451Z,19.40
2022-10-18T14:28:11.387Z,19.40
2022-10-18T14:30:53.626Z,19.40
2022-10-18T14:33:33.809Z,19.20
2022-10-18T14:36:10.368Z,19.00
2022-10-18T14:38:49.027Z,18.90
2022-10-18T14:41:21.441Z,19.00
2022-10-18T14:43:49.902Z,18.90
2022-10-18T14:46:21.788Z,18.70
2022-10-18T14:48:56.021Z,18.70
2022-10-18T14:51:24.171Z,18.60
2022-10-18T14:53:53.131Z,18.70
2022-10-18T14:56:32.216Z,18.60
2022-10-18T14:59:03.717Z,18.60
2022-10-18T15:01:33.644Z,18.60
2022-10-18T15:04:10.586Z,18.60
2022-10-18T15:06:43.669Z,18.60
2022-10-18T15:09:13.912Z,18.40
2022-10-18T15:11:44.438Z,18.30
2022-10-18T15:14:17.855Z,18.30
2022-10-18T15:16:47.047Z,18.20
2022-10-18T15:19:32.664Z,18.20
2022-10-18T15:22:27.220Z,18.10
2022-10-18T15:25:14.489Z,18.10
2022-10-18T15:27:45.155Z,18.10
2022-10-18T15:30:20.325Z,18.20
2022-10-18T15:32:51.776Z,18.30
2022-10-18T15:35:26.521Z,18.30
2022-10-18T15:37:55.865Z,18.20
2022-10-18T15:40:37.431Z,18.20
2022-10-18T15:43:07.668Z,18.10
2022-10-18T15:45:38.780Z,18.10
2022-10-18T15:48:23.188Z,18.10
2022-10-18T15:50:54.394Z,18.10
2022-10-18T15:53:32.839Z,18.00
2022-10-18T15:56:02.891Z,18.00
2022-10-18T15:58:39.087Z,17.90
2022-10-18T16:01:15.138Z,18.00
2022-10-18T16:03:43.627Z,17.90
2022-10-18T16:06:17.384Z,17.80
2022-10-18T16:08:48.342Z,17.80
2022-10-18T16:11:18.161Z,17.80
2022-10-18T16:13:46.399Z,17.70
2022-10-18T16:16:17.436Z,17.60
2022-10-18T16:18:45.362Z,17.60
2022-10-18T16:21:22.839Z,17.50
2022-10-18T16:23:51.371Z,17.40
2022-10-18T16:26:21.057Z,17.30
2022-10-18T16:28:50.109Z,17.20
2022-10-18T16:31:20.622Z,17.00
2022-10-18T16:33:51.968Z,16.90
2022-10-18T16:36:24.285Z,16.80
2022-10-18T16:38:58.116Z,16.80
2022-10-18T16:41:26.494Z,16.80
2022-10-18T16:43:54.828Z,16.70
2022-10-18T16:46:24.792Z,16.70
2022-10-18T16:48:53.275Z,16.80
2022-10-18T16:51:22.725Z,16.60
2022-10-18T16:53:51.047Z,16.70
2022-10-18T16:56:25.247Z,16.60
2022-10-18T16:58:53.219Z,16.70
2022-10-18T17:01:23.106Z,16.60
2022-10-18T17:03:52.214Z,16.50
2022-10-18T17:06:23.569Z,16.40
2022-10-18T17:08:52.927Z,16.40
2022-10-18T17:11:22.820Z,16.30
2022-10-18T17:13:54.153Z,16.10
2022-10-18T17:16:31.786Z,16.10
2022-10-18T17:19:02.628Z,16.00
2022-10-18T17:21:34.712Z,16.10
2022-10-18T17:24:04.309Z,16.00
2022-10-18T17:26:32.621Z,15.90
2022-10-18T17:29:02.442Z,15.90
2022-10-18T17:31:31.527Z,15.90
2022-10-18T17:34:01.631Z,15.80
2022-10-18T17:36:32.000Z,15.90
2022-10-18T17:38:59.898Z,16.00
2022-10-18T17:41:28.101Z,16.00
2022-10-18T17:43:56.256Z,15.90
2022-10-18T17:46:24.557Z,15.80
2022-10-18T17:48:52.522Z,15.70
2022-10-18T17:51:22.499Z,15.70
2022-10-18T17:53:52.084Z,15.70
2022-10-18T17:56:19.976Z,15.60
2022-10-18T17:58:51.809Z,15.50
2022-10-18T18:01:24.224Z,15.50
2022-10-18T18:03:57.704Z,15.50
2022-10-18T18:06:34.599Z,15.40
2022-10-18T18:09:09.145Z,15.30
2022-10-18T18:11:38.643Z,15.30
2022-10-18T18:14:08.894Z,15.30
2022-10-18T18:16:38.626Z,15.30
2022-10-18T18:19:11.955Z,15.40
2022-10-18T18:21:40.852Z,15.40
2022-10-18T18:24:11.090Z,15.40
2022-10-18T18:26:40.325Z,15.40
2022-10-18T18:29:15.689Z,15.40
2022-10-18T18:31:43.932Z,15.50
2022-10-18T18:34:12.536Z,15.50
2022-10-18T18:36:40.968Z,15.50
2022-10-18T18:39:26.104Z,15.50
2022-10-18T18:41:54.217Z,15.40
2022-10-18T18:44:22.456Z,15.50
2022-10-18T18:47:13.335Z,15.40
2022-10-18T18:49:48.381Z,15.40
2022-10-18T18:52:16.675Z,15.40
2022-10-18T18:54:46.078Z,15.40
2022-10-18T18:57:14.015Z,15.40
2022-10-18T18:59:45.016Z,15.40
2022-10-18T19:02:13.147Z,15.40
2022-10-18T19:04:41.702Z,15.50
2022-10-18T19:07:12.689Z,15.50
2022-10-18T19:09:44.661Z,15.50
2022-10-18T19:12:16.467Z,15.60
2022-10-18T19:14:47.332Z,15.50
2022-10-18T19:17:15.308Z,15.50
2022-10-18T19:19:48.960Z,15.50
2022-10-18T19:22:16.878Z,15.30
2022-10-18T19:24:45.122Z,15.30
2022-10-18T19:27:14.383Z,15.30
2022-10-18T19:29:46.080Z,15.30
2022-10-18T19:32:18.862Z,15.30
2022-10-18T19:34:47.209Z,15.20
2022-10-18T19:37:16.185Z,15.10
2022-10-18T19:39:44.345Z,15.00
2022-10-18T19:42:18.631Z,15.00
2022-10-18T19:44:51.121Z,14.80
2022-10-18T19:47:22.691Z,14.70
2022-10-18T19:49:54.674Z,14.60
2022-10-18T19:52:22.655Z,14.60
2022-10-18T19:54:50.586Z,14.60
2022-10-18T19:57:20.009Z,14.60
2022-10-18T19:59:56.810Z,14.60
2022-10-18T20:02:25.020Z,14.50
2022-10-18T20:04:53.151Z,14.50
2022-10-18T20:07:21.028Z,14.50
2022-10-18T20:09:48.953Z,14.40
2022-10-18T20:12:16.831Z,14.40
2022-10-18T20:14:48.503Z,14.40
2022-10-18T20:17:16.746Z,14.50
2022-10-18T20:19:44.702Z,14.50
2022-10-18T20:22:12.617Z,14.50
2022-10-18T20:24:40.488Z,14.40
2022-10-18T20:27:11.329Z,14.40
2022-10-18T20:29:41.611Z,14.40
2022-10-18T20:32:10.884Z,14.30
2022-10-18T20:34:38.847Z,14.40
2022-10-18T20:37:06.801Z,14.40
2022-10-18T20:39:35.204Z,14.40
2022-10-18T20:42:09.994Z,14.50
2022-10-18T20:44:54.007Z,14.50
2022-10-18T20:47:32.604Z,14.50
2022-10-18T20:50:00.721Z,14.40
2022-10-18T20:52:28.679Z,14.40
2022-10-18T20:54:56.523Z,14.40
2022-10-18T20:57:24.505Z,14.40
2022-10-18T20:59:52.363Z,14.30
2022-10-18T21:02:20.387Z,14.30
2022-10-18T21:04:49.588Z,14.30
2022-10-18T21:07:17.498Z,14.30
2022-10-18T21:09:45.341Z,14.30
2022-10-18T21:12:13.232Z,14.30
2022-10-18T21:14:41.432Z,14.20
2022-10-18T21:17:09.351Z,14.10
2022-10-18T21:19:37.250Z,14.10
2022-10-18T21:22:06.601Z,14.10
2022-10-18T21:24:34.619Z,14.00
2022-10-18T21:27:02.588Z,14.00
2022-10-18T21:29:30.846Z,14.00
2022-10-18T21:31:59.620Z,13.90
2022-10-18T21:34:27.811Z,13.90
2022-10-18T21:36:55.699Z,14.00
2022-10-18T21:39:25.446Z,14.10
2022-10-18T21:41:53.607Z,14.10
2022-10-18T21:44:21.672Z,14.20
2022-10-18T21:46:49.771Z,14.30
2022-10-18T21:49:18.041Z,14.30
2022-10-18T21:51:46.078Z,14.30
2022-10-18T21:54:15.977Z,14.20
2022-10-18T21:56:46.192Z,14.20
2022-10-18T21:59:14.719Z,14.30
2022-10-18T22:01:44.134Z,14.20
2022-10-18T22:04:20.182Z,14.20
2022-10-18T22:06:48.428Z,14.20
2022-10-18T22:09:16.743Z,14.10
2022-10-18T22:11:48.432Z,14.10
2022-10-18T22:14:16.419Z,14.00
2022-10-18T22:16:44.365Z,14.00
2022-10-18T22:19:12.819Z,14.00
2022-10-18T22:21:40.801Z,14.00
2022-10-18T22:24:10.376Z,14.00
2022-10-18T22:26:40.817Z,14.00
2022-10-18T22:29:12.630Z,14.00
2022-10-18T22:31:42.266Z,14.00
2022-10-18T22:34:12.974Z,14.00
2022-10-18T22:36:40.851Z,14.00
2022-10-18T22:39:09.361Z,14.00
2022-10-18T22:44:05.443Z,13.90
2022-10-18T22:46:35.166Z,13.90
2022-10-18T22:49:03.005Z,13.90
2022-10-18T22:51:31.111Z,13.90
2022-10-18T22:53:58.976Z,13.80
2022-10-18T22:56:26.877Z,13.90
2022-10-18T22:58:54.786Z,13.80
2022-10-18T23:01:24.055Z,13.90
2022-10-18T23:03:57.463Z,13.80
2022-10-18T23:06:27.625Z,13.80
2022-10-18T23:08:57.443Z,13.80
2022-10-18T23:11:26.412Z,13.80
2022-10-18T23:13:54.860Z,13.80
2022-10-18T23:16:23.240Z,13.80
2022-10-18T23:18:52.420Z,13.70
2022-10-18T23:21:24.113Z,13.70
2022-10-18T23:23:52.738Z,13.70
2022-10-18T23:26:23.217Z,13.60
2022-10-18T23:28:53.245Z,13.70
2022-10-18T23:31:23.239Z,13.60
2022-10-18T23:33:54.355Z,13.60
2022-10-18T23:36:24.248Z,13.60
2022-10-18T23:38:52.691Z,13.60
2022-10-18T23:41:21.898Z,13.60
2022-10-18T23:43:50.018Z,13.60
2022-10-18T23:46:18.914Z,13.60
2022-10-18T23:48:47.368Z,13.50
2022-10-18T23:51:16.138Z,13.40
2022-10-18T23:53:45.545Z,13.40
2022-10-18T23:56:15.266Z,13.30
2022-10-18T23:58:44.301Z,13.30
